sensor_id;sensor_type;location;lat;lon;timestamp;P1;durP1;ratioP1;P2;durP2;ratioP2
9964;SDS011;5023;53.554;9.964;2023-07-29T00:04:49;15.20;;;13.77;;
9964;SDS011;5023;53.554;9.964;2023-07-29T00:09:51;15.70;;;14.00;;
9964;SDS011;5023;53.554;9.964;2023-07-29T00:14:54;16.05;;;14.38;;
9964;SDS011;5023;53.554;9.964;2023-07-29T00:19:56;23.33;;;20.75;;
9964;SDS011;5023;53.554;9.964;2023-07-29T00:24:58;19.27;;;17.38;;
9964;SDS011;5023;53.554;9.964;2023-07-29T00:30:01;18.13;;;15.18;;
9964;SDS011;5023;53.554;9.964;2023-07-29T00:40:14;12.90;;;11.30;;
9964;SDS011;5023;53.554;9.964;2023-07-29T00:45:21;11.65;;;10.32;;
9964;SDS011;5023;53.554;9.964;2023-07-29T00:50:25;11.32;;;10.13;;
9964;SDS011;5023;53.554;9.964;2023-07-29T00:55:28;13.50;;;12.00;;
9964;SDS011;5023;53.554;9.964;2023-07-29T01:00:32;17.75;;;16.02;;
9964;SDS011;5023;53.554;9.964;2023-07-29T01:05:35;7.00;;;6.50;;
9964;SDS011;5023;53.554;9.964;2023-07-29T01:10:46;8.55;;;7.57;;
9964;SDS011;5023;53.554;9.964;2023-07-29T01:15:58;6.57;;;5.97;;
9964;SDS011;5023;53.554;9.964;2023-07-29T01:21:04;6.88;;;6.38;;
9964;SDS011;5023;53.554;9.964;2023-07-29T01:26:12;7.90;;;7.30;;
9964;SDS011;5023;53.554;9.964;2023-07-29T01:31:16;7.78;;;7.07;;
9964;SDS011;5023;53.554;9.964;2023-07-29T01:36:23;7.38;;;6.68;;
9964;SDS011;5023;53.554;9.964;2023-07-29T01:41:31;8.38;;;7.68;;
9964;SDS011;5023;53.554;9.964;2023-07-29T01:46:33;10.13;;;9.15;;
9964;SDS011;5023;53.554;9.964;2023-07-29T01:51:35;11.35;;;10.25;;
9964;SDS011;5023;53.554;9.964;2023-07-29T01:56:38;9.75;;;8.85;;
9964;SDS011;5023;53.554;9.964;2023-07-29T02:01:40;9.38;;;8.60;;
9964;SDS011;5023;53.554;9.964;2023-07-29T02:06:42;9.82;;;9.02;;
9964;SDS011;5023;53.554;9.964;2023-07-29T02:11:46;10.05;;;9.20;;
9964;SDS011;5023;53.554;9.964;2023-07-29T02:16:47;8.45;;;7.75;;
9964;SDS011;5023;53.554;9.964;2023-07-29T02:21:50;7.78;;;7.18;;
9964;SDS011;5023;53.554;9.964;2023-07-29T02:26:53;9.07;;;8.38;;
9964;SDS011;5023;53.554;9.964;2023-07-29T02:31:55;9.18;;;8.48;;
9964;SDS011;5023;53.554;9.964;2023-07-29T02:36:57;9.05;;;8.35;;
9964;SDS011;5023;53.554;9.964;2023-07-29T02:42:00;9.43;;;8.63;;
9964;SDS011;5023;53.554;9.964;2023-07-29T02:47:02;9.50;;;8.70;;
9964;SDS011;5023;53.554;9.964;2023-07-29T02:52:04;10.15;;;9.23;;
9964;SDS011;5023;53.554;9.964;2023-07-29T02:57:08;9.73;;;8.93;;
9964;SDS011;5023;53.554;9.964;2023-07-29T03:02:09;9.30;;;8.60;;
9964;SDS011;5023;53.554;9.964;2023-07-29T03:07:11;9.43;;;8.73;;
9964;SDS011;5023;53.554;9.964;2023-07-29T03:12:15;9.75;;;8.98;;
9964;SDS011;5023;53.554;9.964;2023-07-29T03:17:17;10.52;;;9.52;;
9964;SDS011;5023;53.554;9.964;2023-07-29T03:22:19;10.65;;;9.65;;
9964;SDS011;5023;53.554;9.964;2023-07-29T03:27:22;11.00;;;10.10;;
9964;SDS011;5023;53.554;9.964;2023-07-29T03:32:24;10.55;;;9.70;;
9964;SDS011;5023;53.554;9.964;2023-07-29T03:37:26;11.23;;;10.23;;
9964;SDS011;5023;53.554;9.964;2023-07-29T03:42:29;12.43;;;11.38;;
9964;SDS011;5023;53.554;9.964;2023-07-29T03:47:31;10.50;;;9.63;;
9964;SDS011;5023;53.554;9.964;2023-07-29T03:52:33;10.52;;;9.55;;
9964;SDS011;5023;53.554;9.964;2023-07-29T03:57:36;12.40;;;11.18;;
9964;SDS011;5023;53.554;9.964;2023-07-29T04:02:38;13.00;;;11.77;;
9964;SDS011;5023;53.554;9.964;2023-07-29T04:07:40;13.48;;;12.27;;
9964;SDS011;5023;53.554;9.964;2023-07-29T04:12:44;16.17;;;14.77;;
9964;SDS011;5023;53.554;9.964;2023-07-29T04:17:46;18.45;;;16.65;;
9964;SDS011;5023;53.554;9.964;2023-07-29T04:22:47;24.35;;;21.77;;
9964;SDS011;5023;53.554;9.964;2023-07-29T04:27:51;24.42;;;21.95;;
9964;SDS011;5023;53.554;9.964;2023-07-29T04:32:53;34.90;;;26.80;;
9964;SDS011;5023;53.554;9.964;2023-07-29T04:37:54;29.40;;;24.92;;
9964;SDS011;5023;53.554;9.964;2023-07-29T04:42:58;27.85;;;24.85;;
9964;SDS011;5023;53.554;9.964;2023-07-29T04:48:01;28.42;;;25.35;;
9964;SDS011;5023;53.554;9.964;2023-07-29T04:53:04;27.85;;;24.98;;
9964;SDS011;5023;53.554;9.964;2023-07-29T04:58:07;28.25;;;25.20;;
9964;SDS011;5023;53.554;9.964;2023-07-29T05:03:09;26.10;;;23.40;;
9964;SDS011;5023;53.554;9.964;2023-07-29T05:08:11;24.88;;;22.27;;
9964;SDS011;5023;53.554;9.964;2023-07-29T05:13:14;25.38;;;22.85;;
9964;SDS011;5023;53.554;9.964;2023-07-29T05:18:16;25.30;;;22.75;;
9964;SDS011;5023;53.554;9.964;2023-07-29T05:23:18;25.13;;;22.67;;
9964;SDS011;5023;53.554;9.964;2023-07-29T05:28:22;23.40;;;20.90;;
9964;SDS011;5023;53.554;9.964;2023-07-29T05:33:24;25.10;;;22.70;;
9964;SDS011;5023;53.554;9.964;2023-07-29T05:38:25;24.67;;;22.17;;
9964;SDS011;5023;53.554;9.964;2023-07-29T05:43:29;24.33;;;21.85;;
9964;SDS011;5023;53.554;9.964;2023-07-29T05:48:31;26.55;;;23.95;;
9964;SDS011;5023;53.554;9.964;2023-07-29T05:53:33;25.30;;;22.80;;
9964;SDS011;5023;53.554;9.964;2023-07-29T05:58:37;24.35;;;21.92;;
9964;SDS011;5023;53.554;9.964;2023-07-29T06:03:39;26.05;;;23.35;;
9964;SDS011;5023;53.554;9.964;2023-07-29T06:08:40;24.92;;;22.42;;
9964;SDS011;5023;53.554;9.964;2023-07-29T06:13:44;24.35;;;21.90;;
9964;SDS011;5023;53.554;9.964;2023-07-29T06:18:47;24.13;;;21.77;;
9964;SDS011;5023;53.554;9.964;2023-07-29T06:23:49;25.05;;;22.35;;
9964;SDS011;5023;53.554;9.964;2023-07-29T06:28:52;22.50;;;20.40;;
9964;SDS011;5023;53.554;9.964;2023-07-29T06:33:54;22.10;;;19.80;;
9964;SDS011;5023;53.554;9.964;2023-07-29T06:38:56;22.77;;;20.48;;
9964;SDS011;5023;53.554;9.964;2023-07-29T06:43:59;23.77;;;21.27;;
9964;SDS011;5023;53.554;9.964;2023-07-29T06:49:01;24.52;;;22.02;;
9964;SDS011;5023;53.554;9.964;2023-07-29T06:54:03;23.67;;;21.30;;
9964;SDS011;5023;53.554;9.964;2023-07-29T06:59:06;24.35;;;21.92;;
9964;SDS011;5023;53.554;9.964;2023-07-29T07:04:08;23.13;;;20.92;;
9964;SDS011;5023;53.554;9.964;2023-07-29T07:09:10;22.55;;;20.27;;
9964;SDS011;5023;53.554;9.964;2023-07-29T07:14:13;23.65;;;21.08;;
9964;SDS011;5023;53.554;9.964;2023-07-29T07:19:15;22.60;;;20.33;;
9964;SDS011;5023;53.554;9.964;2023-07-29T07:24:17;22.48;;;20.08;;
9964;SDS011;5023;53.554;9.964;2023-07-29T07:29:21;19.73;;;17.77;;
9964;SDS011;5023;53.554;9.964;2023-07-29T07:34:22;19.88;;;17.88;;
9964;SDS011;5023;53.554;9.964;2023-07-29T07:39:24;28.95;;;26.10;;
9964;SDS011;5023;53.554;9.964;2023-07-29T07:44:28;19.67;;;17.83;;
9964;SDS011;5023;53.554;9.964;2023-07-29T07:49:29;18.77;;;16.88;;
9964;SDS011;5023;53.554;9.964;2023-07-29T07:54:32;17.02;;;15.43;;
9964;SDS011;5023;53.554;9.964;2023-07-29T07:59:35;17.63;;;15.90;;
9964;SDS011;5023;53.554;9.964;2023-07-29T08:04:37;16.20;;;14.77;;
9964;SDS011;5023;53.554;9.964;2023-07-29T08:09:39;16.60;;;15.00;;
9964;SDS011;5023;53.554;9.964;2023-07-29T08:14:42;17.65;;;16.05;;
9964;SDS011;5023;53.554;9.964;2023-07-29T08:19:44;17.60;;;15.93;;
9964;SDS011;5023;53.554;9.964;2023-07-29T08:24:45;17.63;;;15.82;;
9964;SDS011;5023;53.554;9.964;2023-07-29T08:29:49;17.33;;;15.65;;
9964;SDS011;5023;53.554;9.964;2023-07-29T08:34:51;18.60;;;16.60;;
9964;SDS011;5023;53.554;9.964;2023-07-29T08:39:52;17.38;;;15.63;;
9964;SDS011;5023;53.554;9.964;2023-07-29T08:44:56;17.48;;;15.82;;
9964;SDS011;5023;53.554;9.964;2023-07-29T08:50:03;17.17;;;15.70;;
9964;SDS011;5023;53.554;9.964;2023-07-29T08:55:06;16.98;;;15.48;;
9964;SDS011;5023;53.554;9.964;2023-07-29T09:00:10;17.67;;;15.98;;
9964;SDS011;5023;53.554;9.964;2023-07-29T09:05:13;19.10;;;17.30;;
9964;SDS011;5023;53.554;9.964;2023-07-29T09:10:15;23.60;;;21.33;;
9964;SDS011;5023;53.554;9.964;2023-07-29T09:20:39;20.17;;;18.27;;
9964;SDS011;5023;53.554;9.964;2023-07-29T09:25:41;18.83;;;16.77;;
9964;SDS011;5023;53.554;9.964;2023-07-29T09:30:46;18.05;;;16.30;;
9964;SDS011;5023;53.554;9.964;2023-07-29T09:35:48;16.90;;;15.30;;
9964;SDS011;5023;53.554;9.964;2023-07-29T09:40:50;16.65;;;15.15;;
9964;SDS011;5023;53.554;9.964;2023-07-29T09:46:00;15.25;;;13.85;;
9964;SDS011;5023;53.554;9.964;2023-07-29T09:51:09;14.98;;;13.68;;
9964;SDS011;5023;53.554;9.964;2023-07-29T09:56:12;13.25;;;12.15;;
9964;SDS011;5023;53.554;9.964;2023-07-29T10:01:16;11.57;;;10.45;;
9964;SDS011;5023;53.554;9.964;2023-07-29T10:06:19;10.57;;;9.68;;
9964;SDS011;5023;53.554;9.964;2023-07-29T10:11:22;10.60;;;9.70;;
9964;SDS011;5023;53.554;9.964;2023-07-29T10:16:36;10.80;;;9.63;;
9964;SDS011;5023;53.554;9.964;2023-07-29T10:21:39;8.43;;;7.72;;
9964;SDS011;5023;53.554;9.964;2023-07-29T10:26:45;7.80;;;7.10;;
9964;SDS011;5023;53.554;9.964;2023-07-29T11:01:57;5.68;;;5.18;;
9964;SDS011;5023;53.554;9.964;2023-07-29T11:12:33;5.40;;;4.85;;
9964;SDS011;5023;53.554;9.964;2023-07-29T11:17:45;4.15;;;3.70;;
9964;SDS011;5023;53.554;9.964;2023-07-29T11:22:48;3.70;;;3.40;;
9964;SDS011;5023;53.554;9.964;2023-07-29T11:27:51;3.50;;;3.20;;
9964;SDS011;5023;53.554;9.964;2023-07-29T11:32:55;3.05;;;2.85;;
9964;SDS011;5023;53.554;9.964;2023-07-29T11:37:58;3.20;;;2.92;;
9964;SDS011;5023;53.554;9.964;2023-07-29T11:43:00;3.88;;;3.58;;
9964;SDS011;5023;53.554;9.964;2023-07-29T11:48:04;3.53;;;3.22;;
9964;SDS011;5023;53.554;9.964;2023-07-29T11:53:07;3.70;;;3.40;;
9964;SDS011;5023;53.554;9.964;2023-07-29T11:58:09;3.75;;;3.33;;
9964;SDS011;5023;53.554;9.964;2023-07-29T12:03:13;3.55;;;3.30;;
9964;SDS011;5023;53.554;9.964;2023-07-29T12:08:16;3.65;;;3.45;;
9964;SDS011;5023;53.554;9.964;2023-07-29T12:13:19;3.97;;;3.67;;
9964;SDS011;5023;53.554;9.964;2023-07-29T12:18:30;3.70;;;3.47;;
9964;SDS011;5023;53.554;9.964;2023-07-29T12:23:33;3.47;;;3.20;;
9964;SDS011;5023;53.554;9.964;2023-07-29T12:28:35;5.65;;;3.10;;
9964;SDS011;5023;53.554;9.964;2023-07-29T12:33:38;2.72;;;2.60;;
9964;SDS011;5023;53.554;9.964;2023-07-29T12:38:42;3.67;;;2.70;;
9964;SDS011;5023;53.554;9.964;2023-07-29T12:43:44;2.80;;;2.20;;
9964;SDS011;5023;53.554;9.964;2023-07-29T12:48:48;2.92;;;2.72;;
9964;SDS011;5023;53.554;9.964;2023-07-29T12:53:49;2.90;;;2.45;;
9964;SDS011;5023;53.554;9.964;2023-07-29T12:58:51;3.60;;;2.95;;
9964;SDS011;5023;53.554;9.964;2023-07-29T13:03:55;2.15;;;2.05;;
9964;SDS011;5023;53.554;9.964;2023-07-29T13:08:57;3.00;;;2.60;;
9964;SDS011;5023;53.554;9.964;2023-07-29T13:13:59;2.65;;;2.45;;
9964;SDS011;5023;53.554;9.964;2023-07-29T13:19:03;4.82;;;3.92;;
9964;SDS011;5023;53.554;9.964;2023-07-29T13:24:04;5.47;;;4.80;;
9964;SDS011;5023;53.554;9.964;2023-07-29T13:29:06;4.50;;;3.08;;
9964;SDS011;5023;53.554;9.964;2023-07-29T13:34:09;4.47;;;4.18;;
9964;SDS011;5023;53.554;9.964;2023-07-29T13:39:11;2.40;;;2.30;;
9964;SDS011;5023;53.554;9.964;2023-07-29T13:44:13;2.80;;;2.60;;
9964;SDS011;5023;53.554;9.964;2023-07-29T13:49:17;3.85;;;3.55;;
9964;SDS011;5023;53.554;9.964;2023-07-29T13:54:19;2.88;;;2.67;;
9964;SDS011;5023;53.554;9.964;2023-07-29T13:59:21;2.75;;;2.55;;
9964;SDS011;5023;53.554;9.964;2023-07-29T14:04:25;4.60;;;4.20;;
9964;SDS011;5023;53.554;9.964;2023-07-29T14:09:26;3.10;;;2.80;;
9964;SDS011;5023;53.554;9.964;2023-07-29T14:14:29;6.07;;;5.60;;
9964;SDS011;5023;53.554;9.964;2023-07-29T14:19:38;6.35;;;5.75;;
9964;SDS011;5023;53.554;9.964;2023-07-29T14:24:39;3.05;;;2.72;;
9964;SDS011;5023;53.554;9.964;2023-07-29T14:29:41;17.20;;;15.52;;
9964;SDS011;5023;53.554;9.964;2023-07-29T14:34:45;4.15;;;3.85;;
9964;SDS011;5023;53.554;9.964;2023-07-29T14:39:47;10.23;;;8.68;;
9964;SDS011;5023;53.554;9.964;2023-07-29T14:44:49;4.47;;;4.07;;
9964;SDS011;5023;53.554;9.964;2023-07-29T14:49:52;2.70;;;2.50;;
9964;SDS011;5023;53.554;9.964;2023-07-29T14:54:54;4.68;;;3.80;;
9964;SDS011;5023;53.554;9.964;2023-07-29T14:59:56;3.10;;;2.80;;
9964;SDS011;5023;53.554;9.964;2023-07-29T15:04:59;3.22;;;2.85;;
9964;SDS011;5023;53.554;9.964;2023-07-29T15:10:01;6.95;;;6.18;;
9964;SDS011;5023;53.554;9.964;2023-07-29T15:15:04;23.70;;;21.35;;
9964;SDS011;5023;53.554;9.964;2023-07-29T15:20:08;5.00;;;4.50;;
9964;SDS011;5023;53.554;9.964;2023-07-29T15:25:11;8.73;;;7.88;;
9964;SDS011;5023;53.554;9.964;2023-07-29T15:30:13;6.57;;;5.82;;
9964;SDS011;5023;53.554;9.964;2023-07-29T15:35:16;5.20;;;4.72;;
9964;SDS011;5023;53.554;9.964;2023-07-29T15:40:18;5.40;;;4.95;;
9964;SDS011;5023;53.554;9.964;2023-07-29T15:45:20;6.05;;;5.55;;
9964;SDS011;5023;53.554;9.964;2023-07-29T15:50:23;5.30;;;4.90;;
9964;SDS011;5023;53.554;9.964;2023-07-29T15:55:25;5.20;;;4.63;;
9964;SDS011;5023;53.554;9.964;2023-07-29T16:00:27;7.60;;;5.70;;
9964;SDS011;5023;53.554;9.964;2023-07-29T16:05:31;5.00;;;4.60;;
9964;SDS011;5023;53.554;9.964;2023-07-29T16:10:33;6.38;;;5.63;;
9964;SDS011;5023;53.554;9.964;2023-07-29T16:15:35;5.43;;;2.63;;
9964;SDS011;5023;53.554;9.964;2023-07-29T16:20:38;2.42;;;2.22;;
9964;SDS011;5023;53.554;9.964;2023-07-29T16:25:40;3.13;;;2.92;;
9964;SDS011;5023;53.554;9.964;2023-07-29T16:30:42;2.55;;;2.35;;
9964;SDS011;5023;53.554;9.964;2023-07-29T16:35:46;2.95;;;2.35;;
9964;SDS011;5023;53.554;9.964;2023-07-29T16:40:48;2.90;;;2.42;;
9964;SDS011;5023;53.554;9.964;2023-07-29T16:45:49;3.38;;;3.08;;
9964;SDS011;5023;53.554;9.964;2023-07-29T16:50:53;3.40;;;2.42;;
9964;SDS011;5023;53.554;9.964;2023-07-29T16:55:55;4.85;;;4.22;;
9964;SDS011;5023;53.554;9.964;2023-07-29T17:00:56;3.60;;;3.28;;
9964;SDS011;5023;53.554;9.964;2023-07-29T17:06:00;3.33;;;3.13;;
9964;SDS011;5023;53.554;9.964;2023-07-29T17:11:02;5.03;;;4.35;;
9964;SDS011;5023;53.554;9.964;2023-07-29T17:16:04;3.33;;;3.03;;
9964;SDS011;5023;53.554;9.964;2023-07-29T17:21:07;3.90;;;3.33;;
9964;SDS011;5023;53.554;9.964;2023-07-29T17:26:09;8.38;;;4.32;;
9964;SDS011;5023;53.554;9.964;2023-07-29T17:31:11;4.43;;;3.97;;
9964;SDS011;5023;53.554;9.964;2023-07-29T17:36:14;3.42;;;2.63;;
9964;SDS011;5023;53.554;9.964;2023-07-29T17:41:16;4.40;;;3.20;;
9964;SDS011;5023;53.554;9.964;2023-07-29T17:46:18;6.28;;;4.82;;
9964;SDS011;5023;53.554;9.964;2023-07-29T17:51:21;5.45;;;4.47;;
9964;SDS011;5023;53.554;9.964;2023-07-29T17:56:23;14.05;;;12.63;;
9964;SDS011;5023;53.554;9.964;2023-07-29T18:01:26;13.82;;;11.40;;
9964;SDS011;5023;53.554;9.964;2023-07-29T18:06:29;8.68;;;5.70;;
9964;SDS011;5023;53.554;9.964;2023-07-29T18:11:31;5.00;;;4.50;;
9964;SDS011;5023;53.554;9.964;2023-07-29T18:16:33;5.53;;;5.03;;
9964;SDS011;5023;53.554;9.964;2023-07-29T18:21:39;5.85;;;5.35;;
9964;SDS011;5023;53.554;9.964;2023-07-29T18:26:41;6.03;;;5.43;;
9964;SDS011;5023;53.554;9.964;2023-07-29T18:31:43;4.10;;;3.70;;
9964;SDS011;5023;53.554;9.964;2023-07-29T18:36:46;6.45;;;5.95;;
9964;SDS011;5023;53.554;9.964;2023-07-29T18:41:48;4.82;;;4.43;;
9964;SDS011;5023;53.554;9.964;2023-07-29T18:46:50;8.02;;;5.68;;
9964;SDS011;5023;53.554;9.964;2023-07-29T18:51:53;6.00;;;4.65;;
9964;SDS011;5023;53.554;9.964;2023-07-29T18:56:56;5.50;;;5.00;;
9964;SDS011;5023;53.554;9.964;2023-07-29T19:01:57;5.95;;;5.30;;
9964;SDS011;5023;53.554;9.964;2023-07-29T19:07:01;7.47;;;6.75;;
9964;SDS011;5023;53.554;9.964;2023-07-29T19:12:03;5.45;;;4.95;;
9964;SDS011;5023;53.554;9.964;2023-07-29T19:17:05;6.10;;;5.10;;
9964;SDS011;5023;53.554;9.964;2023-07-29T19:22:08;5.28;;;4.38;;
9964;SDS011;5023;53.554;9.964;2023-07-29T19:27:10;5.13;;;4.63;;
9964;SDS011;5023;53.554;9.964;2023-07-29T19:32:12;5.28;;;4.88;;
9964;SDS011;5023;53.554;9.964;2023-07-29T19:37:16;9.88;;;8.25;;
9964;SDS011;5023;53.554;9.964;2023-07-29T19:42:18;6.55;;;5.93;;
9964;SDS011;5023;53.554;9.964;2023-07-29T19:47:20;6.00;;;5.35;;
9964;SDS011;5023;53.554;9.964;2023-07-29T19:52:23;6.10;;;5.10;;
9964;SDS011;5023;53.554;9.964;2023-07-29T19:57:25;7.40;;;5.20;;
9964;SDS011;5023;53.554;9.964;2023-07-29T20:02:27;6.80;;;6.30;;
9964;SDS011;5023;53.554;9.964;2023-07-29T20:07:33;5.82;;;5.32;;
9964;SDS011;5023;53.554;9.964;2023-07-29T20:12:35;6.43;;;5.82;;
9964;SDS011;5023;53.554;9.964;2023-07-29T20:17:37;6.80;;;6.13;;
9964;SDS011;5023;53.554;9.964;2023-07-29T20:22:44;6.38;;;5.78;;
9964;SDS011;5023;53.554;9.964;2023-07-29T20:27:46;6.20;;;5.60;;
9964;SDS011;5023;53.554;9.964;2023-07-29T20:32:48;7.15;;;6.45;;
9964;SDS011;5023;53.554;9.964;2023-07-29T20:37:52;6.88;;;5.88;;
9964;SDS011;5023;53.554;9.964;2023-07-29T20:42:54;8.90;;;7.97;;
9964;SDS011;5023;53.554;9.964;2023-07-29T20:47:56;8.80;;;8.00;;
9964;SDS011;5023;53.554;9.964;2023-07-29T20:52:59;12.07;;;9.35;;
9964;SDS011;5023;53.554;9.964;2023-07-29T20:58:01;8.50;;;7.63;;
9964;SDS011;5023;53.554;9.964;2023-07-29T21:03:03;9.65;;;8.65;;
9964;SDS011;5023;53.554;9.964;2023-07-29T21:08:07;11.77;;;10.32;;
9964;SDS011;5023;53.554;9.964;2023-07-29T21:13:08;8.90;;;8.00;;
9964;SDS011;5023;53.554;9.964;2023-07-29T21:18:10;10.20;;;9.20;;
9964;SDS011;5023;53.554;9.964;2023-07-29T21:23:14;12.90;;;11.50;;
9964;SDS011;5023;53.554;9.964;2023-07-29T21:28:16;11.73;;;9.85;;
9964;SDS011;5023;53.554;9.964;2023-07-29T21:33:18;13.98;;;12.40;;
9964;SDS011;5023;53.554;9.964;2023-07-29T21:38:22;10.40;;;9.40;;
9964;SDS011;5023;53.554;9.964;2023-07-29T21:43:23;11.70;;;10.50;;
9964;SDS011;5023;53.554;9.964;2023-07-29T21:48:26;16.95;;;14.43;;
9964;SDS011;5023;53.554;9.964;2023-07-29T21:53:29;13.50;;;12.20;;
9964;SDS011;5023;53.554;9.964;2023-07-29T21:58:31;13.73;;;12.00;;
9964;SDS011;5023;53.554;9.964;2023-07-29T22:03:33;9.48;;;8.65;;
9964;SDS011;5023;53.554;9.964;2023-07-29T22:08:36;13.00;;;11.80;;
9964;SDS011;5023;53.554;9.964;2023-07-29T22:13:38;10.57;;;9.57;;
9964;SDS011;5023;53.554;9.964;2023-07-29T22:18:40;10.32;;;9.32;;
9964;SDS011;5023;53.554;9.964;2023-07-29T22:23:43;10.73;;;9.63;;
9964;SDS011;5023;53.554;9.964;2023-07-29T22:28:45;10.63;;;9.68;;
9964;SDS011;5023;53.554;9.964;2023-07-29T22:33:47;18.90;;;17.00;;
9964;SDS011;5023;53.554;9.964;2023-07-29T22:38:50;12.60;;;11.45;;
9964;SDS011;5023;53.554;9.964;2023-07-29T22:43:52;11.90;;;10.80;;
9964;SDS011;5023;53.554;9.964;2023-07-29T22:48:54;10.95;;;9.50;;
9964;SDS011;5023;53.554;9.964;2023-07-29T22:53:58;12.77;;;11.57;;
9964;SDS011;5023;53.554;9.964;2023-07-29T22:58:59;10.20;;;8.98;;
9964;SDS011;5023;53.554;9.964;2023-07-29T23:04:01;12.02;;;10.82;;
9964;SDS011;5023;53.554;9.964;2023-07-29T23:09:05;14.05;;;12.55;;
9964;SDS011;5023;53.554;9.964;2023-07-29T23:14:07;10.40;;;9.35;;
9964;SDS011;5023;53.554;9.964;2023-07-29T23:19:09;22.23;;;18.95;;
9964;SDS011;5023;53.554;9.964;2023-07-29T23:24:12;10.40;;;8.93;;
9964;SDS011;5023;53.554;9.964;2023-07-29T23:29:14;14.25;;;11.85;;
9964;SDS011;5023;53.554;9.964;2023-07-29T23:34:16;7.50;;;6.85;;
9964;SDS011;5023;53.554;9.964;2023-07-29T23:39:19;7.57;;;6.90;;
9964;SDS011;5023;53.554;9.964;2023-07-29T23:44:21;9.75;;;8.73;;
9964;SDS011;5023;53.554;9.964;2023-07-29T23:49:23;8.05;;;7.28;;
9964;SDS011;5023;53.554;9.964;2023-07-29T23:54:26;9.90;;;8.90;;
9964;SDS011;5023;53.554;9.964;2023-07-29T23:59:28;11.35;;;10.25;;
